Ballerina — SKNY — position and weather

sailwx.info

Track history (hours):
 
Tides and Currents Weather Stations Pressure Air Temp Water Temp Dewpoint Dewpoint Depression Visibility Wind Speed Wind Dir Waves Ship Positions

Ballerina

Last reported at 2016-Jul-25 15:12 UTC. Time now 2016-Jul-25 15:57 UTC.
Position N 59°23' E 018°05'.

Type: Passenger vessel. MMSI: 265550720.

Date/timePositionNaut miles runAvg speedWind from/ knotsBaromVisibWave heightAir tempDewpointWater temp
2016-Jul-25 15:12N 59°23' E 018°05'1 0.9
2016-Jul-25 13:33N 59°24' E 018°07'3 2.4
2016-Jul-25 12:31N 59°21' E 018°06'3 2.7
2016-Jul-25 11:33N 59°24' E 018°09'2 0.6
2016-Jul-25 08:08N 59°22' E 018°06'1 0.6
2016-Jul-25 07:12N 59°23' E 018°05'1 0.6
2016-Jul-25 06:19N 59°22' E 018°06'1 0.6
2016-Jul-25 05:29N 59°23' E 018°06'0 0.1
2016-Jul-25 04:16N 59°23' E 018°05'  
2016-Jul-22 17:06N 59°23' E 018°07'1 0.0
2016-Jul-21 13:14N 59°23' E 018°06'1 0.6
2016-Jul-21 12:16N 59°22' E 018°06'1 0.7
2016-Jul-21 11:17N 59°23' E 018°06'1 0.2
2016-Jul-21 08:09N 59°22' E 018°06'1 0.8
2016-Jul-21 07:13N 59°23' E 018°06'1 1.1
2016-Jul-21 06:21N 59°22' E 018°06'1 1.2
2016-Jul-21 05:31N 59°23' E 018°05'0 0.1
2016-Jul-21 04:17N 59°23' E 018°05'0 0.0
2016-Jul-20 16:28N 59°23' E 018°05'2 1.6
2016-Jul-20 15:28N 59°24' E 018°08'2 0.7
2016-Jul-20 13:13N 59°23' E 018°06'1 0.9
2016-Jul-20 12:11N 59°22' E 018°06'1 1.0
2016-Jul-20 11:14N 59°23' E 018°05'0 0.1
2016-Jul-20 06:17N 59°23' E 018°06'0 0.2
2016-Jul-20 05:31N 59°23' E 018°06'1 0.1
2016-Jul-19 17:30N 59°22' E 018°06'1 1.0
2016-Jul-19 16:24N 59°23' E 018°06'0 0.3
2016-Jul-19 15:13N 59°23' E 018°06'0 0.0
2016-Jul-19 13:14N 59°23' E 018°06'1 1.4
2016-Jul-19 12:16N 59°22' E 018°06'1 0.2
2016-Jul-19 08:09N 59°22' E 018°06'0 0.1
2016-Jul-19 06:18N 59°23' E 018°06'1 0.0
2016-Jul-18 17:19N 59°22' E 018°06'1 1.2
2016-Jul-18 16:29N 59°23' E 018°06'0 0.3
2016-Jul-18 15:11N 59°23' E 018°06'0 0.1
2016-Jul-18 13:14N 59°23' E 018°06'1 0.4
2016-Jul-18 11:20N 59°24' E 018°06'1 0.2
2016-Jul-18 06:21N 59°22' E 018°06'1 0.7
2016-Jul-18 05:30N 59°23' E 018°06'0 0.0
2016-Jul-18 04:17N 59°23' E 018°06'0 0.0
2016-Jul-17 16:25N 59°23' E 018°06'0 0.0
2016-Jul-17 11:06N 59°23' E 018°06'1 0.4
2016-Jul-17 08:09N 59°22' E 018°06'1 1.3
2016-Jul-17 07:10N 59°23' E 018°06'0 0.0
2016-Jul-16 17:10N 59°23' E 018°06'0 0.6
2016-Jul-16 16:28N 59°23' E 018°05'0 0.0
2016-Jul-16 13:12N 59°23' E 018°06'1 0.7
2016-Jul-16 11:10N 59°22' E 018°06'1 1.5
2016-Jul-16 10:13N 59°23' E 018°06'1 0.1
2016-Jul-15 17:21N 59°22' E 018°06'1 1.0
2016-Jul-15 16:28N 59°23' E 018°05'  
Track history (hours):
 
Tides and Currents Weather Stations Pressure Air Temp Water Temp Dewpoint Dewpoint Depression Visibility Wind Speed Wind Dir Waves Ship Positions

Ballerina

Last reported at 2016-Jul-25 15:12 UTC. Time now 2016-Jul-25 15:57 UTC.
Position N 59°23' E 018°05'.

Type: Passenger vessel. MMSI: 265550720.

Date/timePositionNaut miles runAvg speedWind from/ knotsBaromVisibWave heightAir tempDewpointWater temp
2016-Jul-25 15:12N 59°23' E 018°05'1 0.9
2016-Jul-25 13:33N 59°24' E 018°07'3 2.4
2016-Jul-25 12:31N 59°21' E 018°06'3 2.7
2016-Jul-25 11:33N 59°24' E 018°09'2 0.6
2016-Jul-25 08:08N 59°22' E 018°06'1 0.6
2016-Jul-25 07:12N 59°23' E 018°05'1 0.6
2016-Jul-25 06:19N 59°22' E 018°06'1 0.6
2016-Jul-25 05:29N 59°23' E 018°06'0 0.1
2016-Jul-25 04:16N 59°23' E 018°05'  
2016-Jul-22 17:06N 59°23' E 018°07'1 0.0
2016-Jul-21 13:14N 59°23' E 018°06'1 0.6
2016-Jul-21 12:16N 59°22' E 018°06'1 0.7
2016-Jul-21 11:17N 59°23' E 018°06'1 0.2
2016-Jul-21 08:09N 59°22' E 018°06'1 0.8
2016-Jul-21 07:13N 59°23' E 018°06'1 1.1
2016-Jul-21 06:21N 59°22' E 018°06'1 1.2
2016-Jul-21 05:31N 59°23' E 018°05'0 0.1
2016-Jul-21 04:17N 59°23' E 018°05'0 0.0
2016-Jul-20 16:28N 59°23' E 018°05'2 1.6
2016-Jul-20 15:28N 59°24' E 018°08'2 0.7
2016-Jul-20 13:13N 59°23' E 018°06'1 0.9
2016-Jul-20 12:11N 59°22' E 018°06'1 1.0
2016-Jul-20 11:14N 59°23' E 018°05'0 0.1
2016-Jul-20 06:17N 59°23' E 018°06'0 0.2
2016-Jul-20 05:31N 59°23' E 018°06'1 0.1
2016-Jul-19 17:30N 59°22' E 018°06'1 1.0
2016-Jul-19 16:24N 59°23' E 018°06'0 0.3
2016-Jul-19 15:13N 59°23' E 018°06'0 0.0
2016-Jul-19 13:14N 59°23' E 018°06'1 1.4
2016-Jul-19 12:16N 59°22' E 018°06'1 0.2
2016-Jul-19 08:09N 59°22' E 018°06'0 0.1
2016-Jul-19 06:18N 59°23' E 018°06'1 0.0
2016-Jul-18 17:19N 59°22' E 018°06'1 1.2
2016-Jul-18 16:29N 59°23' E 018°06'0 0.3
2016-Jul-18 15:11N 59°23' E 018°06'0 0.1
2016-Jul-18 13:14N 59°23' E 018°06'1 0.4
2016-Jul-18 11:20N 59°24' E 018°06'1 0.2
2016-Jul-18 06:21N 59°22' E 018°06'1 0.7
2016-Jul-18 05:30N 59°23' E 018°06'0 0.0
2016-Jul-18 04:17N 59°23' E 018°06'0 0.0
2016-Jul-17 16:25N 59°23' E 018°06'0 0.0
2016-Jul-17 11:06N 59°23' E 018°06'1 0.4
2016-Jul-17 08:09N 59°22' E 018°06'1 1.3
2016-Jul-17 07:10N 59°23' E 018°06'0 0.0
2016-Jul-16 17:10N 59°23' E 018°06'0 0.6
2016-Jul-16 16:28N 59°23' E 018°05'0 0.0
2016-Jul-16 13:12N 59°23' E 018°06'1 0.7
2016-Jul-16 11:10N 59°22' E 018°06'1 1.5
2016-Jul-16 10:13N 59°23' E 018°06'1 0.1
2016-Jul-15 17:21N 59°22' E 018°06'1 1.0
2016-Jul-15 16:28N 59°23' E 018°05'  

Dump ship's entire track history